sensor_id;sensor_type;location;lat;lon;timestamp;P1;durP1;ratioP1;P2;durP2;ratioP2
66585;SDS011;53444;45.822;16.092;2023-04-24T00:02:19;4.95;;;2.33;;
66585;SDS011;53444;45.822;16.092;2023-04-24T00:04:47;4.10;;;2.42;;
66585;SDS011;53444;45.822;16.092;2023-04-24T00:07:15;3.95;;;2.78;;
66585;SDS011;53444;45.822;16.092;2023-04-24T00:09:42;4.13;;;2.50;;
66585;SDS011;53444;45.822;16.092;2023-04-24T00:12:08;4.67;;;2.30;;
66585;SDS011;53444;45.822;16.092;2023-04-24T00:14:35;3.03;;;2.30;;
66585;SDS011;53444;45.822;16.092;2023-04-24T00:17:02;3.95;;;2.25;;
66585;SDS011;53444;45.822;16.092;2023-04-24T00:19:28;3.47;;;2.17;;
66585;SDS011;53444;45.822;16.092;2023-04-24T00:21:55;3.38;;;2.13;;
66585;SDS011;53444;45.822;16.092;2023-04-24T00:24:23;4.33;;;2.27;;
66585;SDS011;53444;45.822;16.092;2023-04-24T00:26:50;3.55;;;1.90;;
66585;SDS011;53444;45.822;16.092;2023-04-24T00:29:16;3.15;;;2.05;;
66585;SDS011;53444;45.822;16.092;2023-04-24T00:31:43;3.72;;;2.08;;
66585;SDS011;53444;45.822;16.092;2023-04-24T00:34:09;3.75;;;2.38;;
66585;SDS011;53444;45.822;16.092;2023-04-24T00:36:36;3.93;;;1.90;;
66585;SDS011;53444;45.822;16.092;2023-04-24T00:39:03;7.28;;;1.90;;
66585;SDS011;53444;45.822;16.092;2023-04-24T00:41:31;2.55;;;1.48;;
66585;SDS011;53444;45.822;16.092;2023-04-24T00:43:58;3.17;;;1.90;;
66585;SDS011;53444;45.822;16.092;2023-04-24T00:46:24;2.28;;;1.58;;
66585;SDS011;53444;45.822;16.092;2023-04-24T00:48:51;2.73;;;1.60;;
66585;SDS011;53444;45.822;16.092;2023-04-24T00:51:18;3.22;;;1.77;;
66585;SDS011;53444;45.822;16.092;2023-04-24T00:53:45;2.95;;;1.88;;
66585;SDS011;53444;45.822;16.092;2023-04-24T00:56:11;3.15;;;1.60;;
66585;SDS011;53444;45.822;16.092;2023-04-24T00:58:39;3.88;;;2.05;;
66585;SDS011;53444;45.822;16.092;2023-04-24T01:01:06;2.60;;;1.70;;
66585;SDS011;53444;45.822;16.092;2023-04-24T01:03:34;2.53;;;1.60;;
66585;SDS011;53444;45.822;16.092;2023-04-24T01:06:02;2.78;;;1.73;;
66585;SDS011;53444;45.822;16.092;2023-04-24T01:08:30;2.78;;;1.85;;
66585;SDS011;53444;45.822;16.092;2023-04-24T01:10:57;3.47;;;1.90;;
66585;SDS011;53444;45.822;16.092;2023-04-24T01:13:23;2.13;;;1.43;;
66585;SDS011;53444;45.822;16.092;2023-04-24T01:15:52;2.67;;;2.00;;
66585;SDS011;53444;45.822;16.092;2023-04-24T01:18:18;1.95;;;1.60;;
66585;SDS011;53444;45.822;16.092;2023-04-24T01:20:46;2.92;;;2.03;;
66585;SDS011;53444;45.822;16.092;2023-04-24T01:23:18;3.22;;;1.92;;
66585;SDS011;53444;45.822;16.092;2023-04-24T01:25:45;4.40;;;1.80;;
66585;SDS011;53444;45.822;16.092;2023-04-24T01:28:12;2.13;;;1.65;;
66585;SDS011;53444;45.822;16.092;2023-04-24T01:30:39;2.63;;;1.73;;
66585;SDS011;53444;45.822;16.092;2023-04-24T01:33:05;2.72;;;1.58;;
66585;SDS011;53444;45.822;16.092;2023-04-24T01:35:32;2.67;;;2.03;;
66585;SDS011;53444;45.822;16.092;2023-04-24T01:38:01;2.30;;;1.40;;
66585;SDS011;53444;45.822;16.092;2023-04-24T01:40:29;2.25;;;1.80;;
66585;SDS011;53444;45.822;16.092;2023-04-24T01:42:56;2.65;;;1.88;;
66585;SDS011;53444;45.822;16.092;2023-04-24T01:45:23;2.28;;;1.40;;
66585;SDS011;53444;45.822;16.092;2023-04-24T01:47:51;2.78;;;1.85;;
66585;SDS011;53444;45.822;16.092;2023-04-24T01:50:18;2.77;;;1.80;;
66585;SDS011;53444;45.822;16.092;2023-04-24T01:52:45;2.58;;;1.65;;
66585;SDS011;53444;45.822;16.092;2023-04-24T01:55:11;3.80;;;1.70;;
66585;SDS011;53444;45.822;16.092;2023-04-24T01:57:39;4.72;;;2.50;;
66585;SDS011;53444;45.822;16.092;2023-04-24T02:00:06;2.58;;;1.77;;
66585;SDS011;53444;45.822;16.092;2023-04-24T02:02:33;2.80;;;1.80;;
66585;SDS011;53444;45.822;16.092;2023-04-24T02:05:00;3.50;;;1.50;;
66585;SDS011;53444;45.822;16.092;2023-04-24T02:07:27;2.92;;;2.00;;
66585;SDS011;53444;45.822;16.092;2023-04-24T02:09:54;6.85;;;2.13;;
66585;SDS011;53444;45.822;16.092;2023-04-24T02:12:21;2.70;;;1.95;;
66585;SDS011;53444;45.822;16.092;2023-04-24T02:14:49;3.50;;;1.77;;
66585;SDS011;53444;45.822;16.092;2023-04-24T02:17:15;3.22;;;2.17;;
66585;SDS011;53444;45.822;16.092;2023-04-24T02:19:42;3.75;;;2.20;;
66585;SDS011;53444;45.822;16.092;2023-04-24T02:22:09;3.45;;;2.47;;
66585;SDS011;53444;45.822;16.092;2023-04-24T02:24:35;4.57;;;2.50;;
66585;SDS011;53444;45.822;16.092;2023-04-24T02:27:02;3.40;;;2.30;;
66585;SDS011;53444;45.822;16.092;2023-04-24T02:29:29;2.75;;;1.90;;
66585;SDS011;53444;45.822;16.092;2023-04-24T02:31:58;3.28;;;2.10;;
66585;SDS011;53444;45.822;16.092;2023-04-24T02:34:25;3.05;;;1.55;;
66585;SDS011;53444;45.822;16.092;2023-04-24T02:36:52;3.45;;;1.98;;
66585;SDS011;53444;45.822;16.092;2023-04-24T02:39:19;4.60;;;2.40;;
66585;SDS011;53444;45.822;16.092;2023-04-24T02:41:46;3.63;;;2.00;;
66585;SDS011;53444;45.822;16.092;2023-04-24T02:44:13;5.75;;;2.20;;
66585;SDS011;53444;45.822;16.092;2023-04-24T02:46:39;2.63;;;1.60;;
66585;SDS011;53444;45.822;16.092;2023-04-24T02:49:08;5.03;;;2.17;;
66585;SDS011;53444;45.822;16.092;2023-04-24T02:51:36;3.87;;;1.60;;
66585;SDS011;53444;45.822;16.092;2023-04-24T02:54:06;2.95;;;1.70;;
66585;SDS011;53444;45.822;16.092;2023-04-24T02:56:33;3.58;;;1.83;;
66585;SDS011;53444;45.822;16.092;2023-04-24T02:59:00;3.10;;;1.25;;
66585;SDS011;53444;45.822;16.092;2023-04-24T03:03:57;2.90;;;1.70;;
66585;SDS011;53444;45.822;16.092;2023-04-24T03:06:25;4.00;;;1.90;;
66585;SDS011;53444;45.822;16.092;2023-04-24T03:08:52;3.13;;;1.42;;
66585;SDS011;53444;45.822;16.092;2023-04-24T03:11:18;4.13;;;2.15;;
66585;SDS011;53444;45.822;16.092;2023-04-24T03:13:45;3.00;;;1.95;;
66585;SDS011;53444;45.822;16.092;2023-04-24T03:16:12;4.13;;;1.67;;
66585;SDS011;53444;45.822;16.092;2023-04-24T03:18:38;3.45;;;2.20;;
66585;SDS011;53444;45.822;16.092;2023-04-24T03:21:05;3.10;;;1.85;;
66585;SDS011;53444;45.822;16.092;2023-04-24T03:38:58;2.40;;;1.52;;
66585;SDS011;53444;45.822;16.092;2023-04-24T03:41:25;3.00;;;1.43;;
66585;SDS011;53444;45.822;16.092;2023-04-24T03:43:51;2.75;;;1.48;;
66585;SDS011;53444;45.822;16.092;2023-04-24T03:46:18;3.13;;;1.80;;
66585;SDS011;53444;45.822;16.092;2023-04-24T03:48:45;4.78;;;2.00;;
66585;SDS011;53444;45.822;16.092;2023-04-24T03:51:12;4.20;;;2.67;;
66585;SDS011;53444;45.822;16.092;2023-04-24T03:53:38;6.33;;;2.30;;
66585;SDS011;53444;45.822;16.092;2023-04-24T03:56:06;3.42;;;2.35;;
66585;SDS011;53444;45.822;16.092;2023-04-24T03:58:33;2.85;;;1.98;;
66585;SDS011;53444;45.822;16.092;2023-04-24T04:01:00;4.10;;;2.03;;
66585;SDS011;53444;45.822;16.092;2023-04-24T04:03:27;2.78;;;2.13;;
66585;SDS011;53444;45.822;16.092;2023-04-24T04:05:54;2.97;;;1.80;;
66585;SDS011;53444;45.822;16.092;2023-04-24T04:08:21;2.90;;;1.88;;
66585;SDS011;53444;45.822;16.092;2023-04-24T04:10:47;3.35;;;1.95;;
66585;SDS011;53444;45.822;16.092;2023-04-24T04:13:15;3.05;;;1.65;;
66585;SDS011;53444;45.822;16.092;2023-04-24T04:15:42;3.30;;;2.08;;
66585;SDS011;53444;45.822;16.092;2023-04-24T04:18:09;2.97;;;1.80;;
66585;SDS011;53444;45.822;16.092;2023-04-24T04:20:36;3.20;;;1.80;;
66585;SDS011;53444;45.822;16.092;2023-04-24T04:23:03;3.67;;;2.22;;
66585;SDS011;53444;45.822;16.092;2023-04-24T04:25:29;3.03;;;1.85;;
66585;SDS011;53444;45.822;16.092;2023-04-24T04:27:56;3.97;;;2.60;;
66585;SDS011;53444;45.822;16.092;2023-04-24T04:30:25;4.27;;;2.30;;
66585;SDS011;53444;45.822;16.092;2023-04-24T04:32:54;4.07;;;2.15;;
66585;SDS011;53444;45.822;16.092;2023-04-24T04:35:21;4.30;;;2.58;;
66585;SDS011;53444;45.822;16.092;2023-04-24T04:37:48;6.45;;;2.70;;
66585;SDS011;53444;45.822;16.092;2023-04-24T04:40:14;8.85;;;4.20;;
66585;SDS011;53444;45.822;16.092;2023-04-24T04:42:41;11.77;;;3.90;;
66585;SDS011;53444;45.822;16.092;2023-04-24T04:45:10;8.30;;;3.85;;
66585;SDS011;53444;45.822;16.092;2023-04-24T04:47:39;4.65;;;3.00;;
66585;SDS011;53444;45.822;16.092;2023-04-24T04:50:06;11.75;;;6.15;;
66585;SDS011;53444;45.822;16.092;2023-04-24T04:52:33;13.27;;;6.30;;
66585;SDS011;53444;45.822;16.092;2023-04-24T04:54:59;11.10;;;4.40;;
66585;SDS011;53444;45.822;16.092;2023-04-24T04:57:27;6.47;;;3.95;;
66585;SDS011;53444;45.822;16.092;2023-04-24T04:59:55;23.80;;;9.85;;
66585;SDS011;53444;45.822;16.092;2023-04-24T05:02:23;28.73;;;11.73;;
66585;SDS011;53444;45.822;16.092;2023-04-24T05:04:52;25.40;;;9.82;;
66585;SDS011;53444;45.822;16.092;2023-04-24T05:07:18;7.53;;;3.77;;
66585;SDS011;53444;45.822;16.092;2023-04-24T05:09:50;5.72;;;3.38;;
66585;SDS011;53444;45.822;16.092;2023-04-24T05:12:17;6.72;;;2.40;;
66585;SDS011;53444;45.822;16.092;2023-04-24T05:14:46;3.58;;;2.22;;
66585;SDS011;53444;45.822;16.092;2023-04-24T05:17:13;5.28;;;2.92;;
66585;SDS011;53444;45.822;16.092;2023-04-24T05:19:40;4.13;;;2.50;;
66585;SDS011;53444;45.822;16.092;2023-04-24T05:22:09;3.83;;;2.65;;
66585;SDS011;53444;45.822;16.092;2023-04-24T05:24:39;5.50;;;2.13;;
66585;SDS011;53444;45.822;16.092;2023-04-24T05:27:06;9.57;;;3.47;;
66585;SDS011;53444;45.822;16.092;2023-04-24T05:29:32;5.80;;;3.20;;
66585;SDS011;53444;45.822;16.092;2023-04-24T05:31:59;9.93;;;4.90;;
66585;SDS011;53444;45.822;16.092;2023-04-24T05:34:26;30.15;;;12.23;;
66585;SDS011;53444;45.822;16.092;2023-04-24T05:36:53;20.77;;;9.80;;
66585;SDS011;53444;45.822;16.092;2023-04-24T05:39:21;11.57;;;4.88;;
66585;SDS011;53444;45.822;16.092;2023-04-24T05:41:50;7.00;;;4.20;;
66585;SDS011;53444;45.822;16.092;2023-04-24T05:44:16;8.47;;;4.27;;
66585;SDS011;53444;45.822;16.092;2023-04-24T05:46:43;5.60;;;3.30;;
66585;SDS011;53444;45.822;16.092;2023-04-24T05:49:09;4.75;;;2.50;;
66585;SDS011;53444;45.822;16.092;2023-04-24T05:51:36;8.20;;;3.25;;
66585;SDS011;53444;45.822;16.092;2023-04-24T05:54:04;5.45;;;3.63;;
66585;SDS011;53444;45.822;16.092;2023-04-24T05:56:32;4.80;;;3.30;;
66585;SDS011;53444;45.822;16.092;2023-04-24T05:58:59;5.78;;;3.22;;
66585;SDS011;53444;45.822;16.092;2023-04-24T06:01:25;5.22;;;3.10;;
66585;SDS011;53444;45.822;16.092;2023-04-24T06:03:52;7.15;;;3.40;;
66585;SDS011;53444;45.822;16.092;2023-04-24T06:06:19;9.30;;;4.20;;
66585;SDS011;53444;45.822;16.092;2023-04-24T06:08:45;9.87;;;4.73;;
66585;SDS011;53444;45.822;16.092;2023-04-24T06:11:12;7.25;;;4.63;;
66585;SDS011;53444;45.822;16.092;2023-04-24T06:13:40;6.88;;;4.03;;
66585;SDS011;53444;45.822;16.092;2023-04-24T06:16:07;7.43;;;4.47;;
66585;SDS011;53444;45.822;16.092;2023-04-24T06:18:33;6.72;;;3.63;;
66585;SDS011;53444;45.822;16.092;2023-04-24T06:21:00;6.90;;;3.73;;
66585;SDS011;53444;45.822;16.092;2023-04-24T06:23:27;6.90;;;3.88;;
66585;SDS011;53444;45.822;16.092;2023-04-24T06:25:54;5.95;;;3.50;;
66585;SDS011;53444;45.822;16.092;2023-04-24T06:28:21;5.32;;;3.08;;
66585;SDS011;53444;45.822;16.092;2023-04-24T06:30:49;5.55;;;3.63;;
66585;SDS011;53444;45.822;16.092;2023-04-24T06:33:15;5.77;;;3.30;;
66585;SDS011;53444;45.822;16.092;2023-04-24T06:35:42;5.97;;;3.88;;
66585;SDS011;53444;45.822;16.092;2023-04-24T06:38:09;6.70;;;4.55;;
66585;SDS011;53444;45.822;16.092;2023-04-24T06:40:36;7.50;;;3.88;;
66585;SDS011;53444;45.822;16.092;2023-04-24T06:43:03;8.45;;;4.35;;
66585;SDS011;53444;45.822;16.092;2023-04-24T06:45:29;7.57;;;3.97;;
66585;SDS011;53444;45.822;16.092;2023-04-24T06:47:57;8.38;;;5.10;;
66585;SDS011;53444;45.822;16.092;2023-04-24T06:50:24;12.00;;;5.68;;
66585;SDS011;53444;45.822;16.092;2023-04-24T06:52:51;9.38;;;5.93;;
66585;SDS011;53444;45.822;16.092;2023-04-24T06:55:17;13.63;;;6.00;;
66585;SDS011;53444;45.822;16.092;2023-04-24T06:57:44;9.87;;;5.70;;
66585;SDS011;53444;45.822;16.092;2023-04-24T07:00:11;9.68;;;4.43;;
66585;SDS011;53444;45.822;16.092;2023-04-24T07:02:39;8.20;;;4.03;;
66585;SDS011;53444;45.822;16.092;2023-04-24T07:05:07;11.60;;;4.35;;
66585;SDS011;53444;45.822;16.092;2023-04-24T07:07:34;6.25;;;4.20;;
66585;SDS011;53444;45.822;16.092;2023-04-24T07:10:02;7.07;;;4.67;;
66585;SDS011;53444;45.822;16.092;2023-04-24T07:12:30;11.52;;;4.47;;
66585;SDS011;53444;45.822;16.092;2023-04-24T07:14:57;9.55;;;5.43;;
66585;SDS011;53444;45.822;16.092;2023-04-24T07:17:24;17.50;;;8.35;;
66585;SDS011;53444;45.822;16.092;2023-04-24T07:19:50;24.85;;;9.48;;
66585;SDS011;53444;45.822;16.092;2023-04-24T07:22:18;14.10;;;6.73;;
66585;SDS011;53444;45.822;16.092;2023-04-24T07:24:45;7.63;;;4.47;;
66585;SDS011;53444;45.822;16.092;2023-04-24T07:27:12;8.88;;;4.00;;
66585;SDS011;53444;45.822;16.092;2023-04-24T07:29:39;5.22;;;3.75;;
66585;SDS011;53444;45.822;16.092;2023-04-24T07:32:06;6.15;;;3.92;;
66585;SDS011;53444;45.822;16.092;2023-04-24T07:34:34;4.73;;;3.10;;
66585;SDS011;53444;45.822;16.092;2023-04-24T07:37:00;4.72;;;2.90;;
66585;SDS011;53444;45.822;16.092;2023-04-24T07:39:29;5.60;;;3.88;;
66585;SDS011;53444;45.822;16.092;2023-04-24T07:41:56;4.75;;;2.97;;
66585;SDS011;53444;45.822;16.092;2023-04-24T07:44:23;4.70;;;3.40;;
66585;SDS011;53444;45.822;16.092;2023-04-24T07:46:50;5.50;;;3.30;;
66585;SDS011;53444;45.822;16.092;2023-04-24T07:49:17;4.43;;;3.28;;
66585;SDS011;53444;45.822;16.092;2023-04-24T07:51:44;6.72;;;3.85;;
66585;SDS011;53444;45.822;16.092;2023-04-24T07:54:11;5.85;;;3.80;;
66585;SDS011;53444;45.822;16.092;2023-04-24T07:56:39;6.85;;;3.95;;
66585;SDS011;53444;45.822;16.092;2023-04-24T07:59:08;10.73;;;4.40;;
66585;SDS011;53444;45.822;16.092;2023-04-24T08:01:35;7.03;;;3.78;;
66585;SDS011;53444;45.822;16.092;2023-04-24T08:04:02;7.13;;;4.25;;
66585;SDS011;53444;45.822;16.092;2023-04-24T08:06:29;7.32;;;4.30;;
66585;SDS011;53444;45.822;16.092;2023-04-24T08:08:57;6.30;;;3.72;;
66585;SDS011;53444;45.822;16.092;2023-04-24T08:11:23;4.90;;;3.80;;
66585;SDS011;53444;45.822;16.092;2023-04-24T08:13:52;8.40;;;4.22;;
66585;SDS011;53444;45.822;16.092;2023-04-24T08:16:19;10.10;;;5.35;;
66585;SDS011;53444;45.822;16.092;2023-04-24T08:18:46;6.80;;;4.35;;
66585;SDS011;53444;45.822;16.092;2023-04-24T08:21:12;11.88;;;4.72;;
66585;SDS011;53444;45.822;16.092;2023-04-24T08:23:42;7.57;;;4.43;;
66585;SDS011;53444;45.822;16.092;2023-04-24T08:26:08;7.35;;;4.60;;
66585;SDS011;53444;45.822;16.092;2023-04-24T08:28:36;8.35;;;4.32;;
66585;SDS011;53444;45.822;16.092;2023-04-24T08:31:04;7.53;;;5.10;;
66585;SDS011;53444;45.822;16.092;2023-04-24T08:33:30;6.82;;;4.55;;
66585;SDS011;53444;45.822;16.092;2023-04-24T08:35:59;7.63;;;4.63;;
66585;SDS011;53444;45.822;16.092;2023-04-24T08:38:26;6.70;;;4.20;;
66585;SDS011;53444;45.822;16.092;2023-04-24T08:40:53;8.75;;;5.10;;
66585;SDS011;53444;45.822;16.092;2023-04-24T08:43:20;8.05;;;4.43;;
66585;SDS011;53444;45.822;16.092;2023-04-24T08:45:48;6.10;;;4.00;;
66585;SDS011;53444;45.822;16.092;2023-04-24T08:48:16;9.93;;;4.63;;
66585;SDS011;53444;45.822;16.092;2023-04-24T08:50:44;6.47;;;4.40;;
66585;SDS011;53444;45.822;16.092;2023-04-24T08:53:11;8.25;;;4.60;;
66585;SDS011;53444;45.822;16.092;2023-04-24T08:55:37;6.82;;;4.50;;
66585;SDS011;53444;45.822;16.092;2023-04-24T08:58:05;7.85;;;5.10;;
66585;SDS011;53444;45.822;16.092;2023-04-24T09:00:32;7.87;;;4.57;;
66585;SDS011;53444;45.822;16.092;2023-04-24T09:03:00;6.20;;;4.60;;
66585;SDS011;53444;45.822;16.092;2023-04-24T09:05:28;8.15;;;4.72;;
66585;SDS011;53444;45.822;16.092;2023-04-24T09:07:56;5.75;;;4.05;;
66585;SDS011;53444;45.822;16.092;2023-04-24T09:10:24;8.57;;;6.03;;
66585;SDS011;53444;45.822;16.092;2023-04-24T09:12:51;7.97;;;4.90;;
66585;SDS011;53444;45.822;16.092;2023-04-24T09:15:18;9.00;;;5.65;;
66585;SDS011;53444;45.822;16.092;2023-04-24T09:17:46;9.65;;;6.25;;
66585;SDS011;53444;45.822;16.092;2023-04-24T09:20:13;7.95;;;5.07;;
66585;SDS011;53444;45.822;16.092;2023-04-24T09:22:42;7.20;;;4.13;;
66585;SDS011;53444;45.822;16.092;2023-04-24T09:25:09;7.13;;;4.00;;
66585;SDS011;53444;45.822;16.092;2023-04-24T09:27:38;8.65;;;5.85;;
66585;SDS011;53444;45.822;16.092;2023-04-24T09:30:08;7.95;;;4.78;;
66585;SDS011;53444;45.822;16.092;2023-04-24T09:32:35;9.10;;;4.22;;
66585;SDS011;53444;45.822;16.092;2023-04-24T09:35:05;11.27;;;7.07;;
66585;SDS011;53444;45.822;16.092;2023-04-24T09:37:37;7.80;;;4.57;;
66585;SDS011;53444;45.822;16.092;2023-04-24T09:40:10;7.35;;;4.35;;
66585;SDS011;53444;45.822;16.092;2023-04-24T09:42:38;8.05;;;5.15;;
66585;SDS011;53444;45.822;16.092;2023-04-24T09:45:08;6.95;;;4.50;;
66585;SDS011;53444;45.822;16.092;2023-04-24T09:47:35;7.75;;;4.35;;
66585;SDS011;53444;45.822;16.092;2023-04-24T09:50:08;5.33;;;3.50;;
66585;SDS011;53444;45.822;16.092;2023-04-24T09:52:37;5.95;;;3.80;;
66585;SDS011;53444;45.822;16.092;2023-04-24T09:55:11;6.20;;;3.75;;
66585;SDS011;53444;45.822;16.092;2023-04-24T09:57:47;7.60;;;4.15;;
66585;SDS011;53444;45.822;16.092;2023-04-24T10:00:17;5.10;;;3.92;;
66585;SDS011;53444;45.822;16.092;2023-04-24T10:02:49;6.13;;;4.30;;
66585;SDS011;53444;45.822;16.092;2023-04-24T10:05:16;7.38;;;4.72;;
66585;SDS011;53444;45.822;16.092;2023-04-24T10:07:43;5.55;;;3.65;;
66585;SDS011;53444;45.822;16.092;2023-04-24T10:10:11;9.35;;;3.78;;
66585;SDS011;53444;45.822;16.092;2023-04-24T10:12:44;5.20;;;3.67;;
66585;SDS011;53444;45.822;16.092;2023-04-24T10:15:11;5.00;;;3.23;;
66585;SDS011;53444;45.822;16.092;2023-04-24T10:17:39;4.97;;;3.15;;
66585;SDS011;53444;45.822;16.092;2023-04-24T10:20:07;5.18;;;3.13;;
66585;SDS011;53444;45.822;16.092;2023-04-24T10:22:34;4.50;;;3.00;;
66585;SDS011;53444;45.822;16.092;2023-04-24T10:25:03;6.13;;;3.72;;
66585;SDS011;53444;45.822;16.092;2023-04-24T10:27:36;4.70;;;2.83;;
66585;SDS011;53444;45.822;16.092;2023-04-24T10:30:04;4.75;;;2.97;;
66585;SDS011;53444;45.822;16.092;2023-04-24T10:32:32;4.65;;;2.55;;
66585;SDS011;53444;45.822;16.092;2023-04-24T10:34:59;4.25;;;2.60;;
66585;SDS011;53444;45.822;16.092;2023-04-24T10:37:26;3.55;;;2.10;;
66585;SDS011;53444;45.822;16.092;2023-04-24T10:39:53;5.00;;;2.57;;
66585;SDS011;53444;45.822;16.092;2023-04-24T10:42:21;3.55;;;2.20;;
66585;SDS011;53444;45.822;16.092;2023-04-24T10:44:49;4.85;;;2.40;;
66585;SDS011;53444;45.822;16.092;2023-04-24T10:47:16;4.80;;;2.55;;
66585;SDS011;53444;45.822;16.092;2023-04-24T10:49:43;2.88;;;2.20;;
66585;SDS011;53444;45.822;16.092;2023-04-24T10:52:10;4.30;;;2.47;;
66585;SDS011;53444;45.822;16.092;2023-04-24T10:54:41;4.18;;;2.53;;
66585;SDS011;53444;45.822;16.092;2023-04-24T11:02:45;2.30;;;1.77;;
66585;SDS011;53444;45.822;16.092;2023-04-24T11:05:15;3.20;;;2.13;;
66585;SDS011;53444;45.822;16.092;2023-04-24T11:10:40;2.30;;;1.63;;
66585;SDS011;53444;45.822;16.092;2023-04-24T11:13:10;3.13;;;2.00;;
66585;SDS011;53444;45.822;16.092;2023-04-24T11:15:42;3.42;;;2.30;;
66585;SDS011;53444;45.822;16.092;2023-04-24T11:18:12;4.43;;;2.23;;
66585;SDS011;53444;45.822;16.092;2023-04-24T11:20:43;2.15;;;1.77;;
66585;SDS011;53444;45.822;16.092;2023-04-24T11:23:11;2.50;;;1.52;;
66585;SDS011;53444;45.822;16.092;2023-04-24T11:25:38;4.03;;;2.30;;
66585;SDS011;53444;45.822;16.092;2023-04-24T11:28:05;3.97;;;2.00;;
66585;SDS011;53444;45.822;16.092;2023-04-24T11:30:32;2.63;;;2.03;;
66585;SDS011;53444;45.822;16.092;2023-04-24T11:33:05;2.50;;;1.60;;
66585;SDS011;53444;45.822;16.092;2023-04-24T11:35:35;2.95;;;2.20;;
66585;SDS011;53444;45.822;16.092;2023-04-24T11:38:05;5.10;;;2.47;;
66585;SDS011;53444;45.822;16.092;2023-04-24T11:40:33;2.38;;;1.85;;
66585;SDS011;53444;45.822;16.092;2023-04-24T11:43:00;5.40;;;2.03;;
66585;SDS011;53444;45.822;16.092;2023-04-24T11:45:27;5.10;;;2.25;;
66585;SDS011;53444;45.822;16.092;2023-04-24T11:47:56;5.07;;;2.65;;
66585;SDS011;53444;45.822;16.092;2023-04-24T11:50:25;4.63;;;2.38;;
66585;SDS011;53444;45.822;16.092;2023-04-24T11:52:54;3.67;;;2.08;;
66585;SDS011;53444;45.822;16.092;2023-04-24T11:55:25;5.23;;;2.37;;
66585;SDS011;53444;45.822;16.092;2023-04-24T11:57:53;3.92;;;2.35;;
66585;SDS011;53444;45.822;16.092;2023-04-24T12:00:23;3.25;;;2.40;;
66585;SDS011;53444;45.822;16.092;2023-04-24T12:02:50;2.85;;;1.92;;
66585;SDS011;53444;45.822;16.092;2023-04-24T12:05:21;4.97;;;2.13;;
66585;SDS011;53444;45.822;16.092;2023-04-24T12:07:50;2.67;;;1.63;;
66585;SDS011;53444;45.822;16.092;2023-04-24T12:10:19;3.10;;;2.08;;
66585;SDS011;53444;45.822;16.092;2023-04-24T12:12:47;3.67;;;2.53;;
66585;SDS011;53444;45.822;16.092;2023-04-24T12:15:15;2.95;;;2.05;;
66585;SDS011;53444;45.822;16.092;2023-04-24T12:17:43;4.45;;;2.90;;
66585;SDS011;53444;45.822;16.092;2023-04-24T12:20:10;4.07;;;2.80;;
66585;SDS011;53444;45.822;16.092;2023-04-24T12:22:45;3.95;;;2.80;;
66585;SDS011;53444;45.822;16.092;2023-04-24T12:25:13;5.10;;;3.33;;
66585;SDS011;53444;45.822;16.092;2023-04-24T12:27:41;4.13;;;2.58;;
66585;SDS011;53444;45.822;16.092;2023-04-24T12:30:10;2.75;;;2.20;;
66585;SDS011;53444;45.822;16.092;2023-04-24T12:32:40;3.97;;;2.30;;
66585;SDS011;53444;45.822;16.092;2023-04-24T12:35:08;5.18;;;3.08;;
66585;SDS011;53444;45.822;16.092;2023-04-24T12:37:35;3.90;;;2.58;;
66585;SDS011;53444;45.822;16.092;2023-04-24T12:40:03;4.07;;;2.47;;
66585;SDS011;53444;45.822;16.092;2023-04-24T12:42:33;3.95;;;2.78;;
66585;SDS011;53444;45.822;16.092;2023-04-24T12:45:02;4.43;;;2.50;;
66585;SDS011;53444;45.822;16.092;2023-04-24T12:47:30;3.28;;;2.28;;
66585;SDS011;53444;45.822;16.092;2023-04-24T12:49:58;4.25;;;2.83;;
66585;SDS011;53444;45.822;16.092;2023-04-24T12:52:25;4.55;;;2.75;;
66585;SDS011;53444;45.822;16.092;2023-04-24T12:54:52;3.70;;;2.20;;
66585;SDS011;53444;45.822;16.092;2023-04-24T12:57:20;3.27;;;2.27;;
66585;SDS011;53444;45.822;16.092;2023-04-24T12:59:48;3.95;;;2.08;;
66585;SDS011;53444;45.822;16.092;2023-04-24T13:02:15;2.92;;;2.03;;
66585;SDS011;53444;45.822;16.092;2023-04-24T13:04:43;3.22;;;1.98;;
66585;SDS011;53444;45.822;16.092;2023-04-24T13:07:11;2.72;;;2.20;;
66585;SDS011;53444;45.822;16.092;2023-04-24T13:09:37;3.53;;;2.00;;
66585;SDS011;53444;45.822;16.092;2023-04-24T13:12:04;3.50;;;2.03;;
66585;SDS011;53444;45.822;16.092;2023-04-24T13:14:37;4.88;;;2.10;;
66585;SDS011;53444;45.822;16.092;2023-04-24T13:17:05;3.63;;;2.30;;
66585;SDS011;53444;45.822;16.092;2023-04-24T13:19:37;3.22;;;1.90;;
66585;SDS011;53444;45.822;16.092;2023-04-24T13:22:05;4.47;;;2.33;;
66585;SDS011;53444;45.822;16.092;2023-04-24T13:24:36;3.35;;;2.25;;
66585;SDS011;53444;45.822;16.092;2023-04-24T13:27:04;4.28;;;2.90;;
66585;SDS011;53444;45.822;16.092;2023-04-24T13:29:31;3.47;;;2.42;;
66585;SDS011;53444;45.822;16.092;2023-04-24T13:31:58;3.55;;;2.63;;
66585;SDS011;53444;45.822;16.092;2023-04-24T13:34:27;3.73;;;2.20;;
66585;SDS011;53444;45.822;16.092;2023-04-24T13:36:56;3.80;;;2.22;;
66585;SDS011;53444;45.822;16.092;2023-04-24T13:39:24;3.35;;;2.35;;
66585;SDS011;53444;45.822;16.092;2023-04-24T13:41:50;2.92;;;2.20;;
66585;SDS011;53444;45.822;16.092;2023-04-24T13:44:18;3.85;;;2.53;;
66585;SDS011;53444;45.822;16.092;2023-04-24T13:46:46;4.43;;;2.33;;
66585;SDS011;53444;45.822;16.092;2023-04-24T13:49:13;5.03;;;3.15;;
66585;SDS011;53444;45.822;16.092;2023-04-24T13:51:42;6.50;;;3.22;;
66585;SDS011;53444;45.822;16.092;2023-04-24T13:54:09;6.43;;;3.20;;
66585;SDS011;53444;45.822;16.092;2023-04-24T13:56:36;4.10;;;2.88;;
66585;SDS011;53444;45.822;16.092;2023-04-24T13:59:02;5.30;;;2.93;;
66585;SDS011;53444;45.822;16.092;2023-04-24T14:01:29;5.35;;;3.30;;
66585;SDS011;53444;45.822;16.092;2023-04-24T14:03:56;2.70;;;1.95;;
66585;SDS011;53444;45.822;16.092;2023-04-24T14:06:23;4.90;;;1.90;;
66585;SDS011;53444;45.822;16.092;2023-04-24T14:08:51;5.03;;;1.90;;
66585;SDS011;53444;45.822;16.092;2023-04-24T14:11:18;2.80;;;1.77;;
66585;SDS011;53444;45.822;16.092;2023-04-24T14:13:45;2.45;;;1.60;;
66585;SDS011;53444;45.822;16.092;2023-04-24T14:16:12;2.22;;;1.40;;
66585;SDS011;53444;45.822;16.092;2023-04-24T14:18:39;3.80;;;1.73;;
66585;SDS011;53444;45.822;16.092;2023-04-24T14:21:05;4.32;;;2.20;;
66585;SDS011;53444;45.822;16.092;2023-04-24T14:23:32;5.07;;;2.63;;
66585;SDS011;53444;45.822;16.092;2023-04-24T14:26:00;5.13;;;2.58;;
66585;SDS011;53444;45.822;16.092;2023-04-24T14:28:27;5.90;;;2.50;;
66585;SDS011;53444;45.822;16.092;2023-04-24T14:30:54;5.63;;;2.67;;
66585;SDS011;53444;45.822;16.092;2023-04-24T14:33:20;6.47;;;3.28;;
66585;SDS011;53444;45.822;16.092;2023-04-24T14:35:47;8.20;;;3.30;;
66585;SDS011;53444;45.822;16.092;2023-04-24T14:38:14;10.18;;;3.63;;
66585;SDS011;53444;45.822;16.092;2023-04-24T14:40:41;3.88;;;3.20;;
66585;SDS011;53444;45.822;16.092;2023-04-24T14:43:09;4.97;;;2.42;;
66585;SDS011;53444;45.822;16.092;2023-04-24T14:45:36;3.33;;;2.42;;
66585;SDS011;53444;45.822;16.092;2023-04-24T14:48:03;4.03;;;2.33;;
66585;SDS011;53444;45.822;16.092;2023-04-24T14:50:30;4.53;;;2.42;;
66585;SDS011;53444;45.822;16.092;2023-04-24T14:52:56;2.97;;;2.15;;
66585;SDS011;53444;45.822;16.092;2023-04-24T14:55:23;5.50;;;2.33;;
66585;SDS011;53444;45.822;16.092;2023-04-24T14:57:51;5.18;;;2.30;;
66585;SDS011;53444;45.822;16.092;2023-04-24T15:00:20;3.53;;;2.07;;
66585;SDS011;53444;45.822;16.092;2023-04-24T15:02:49;4.03;;;2.50;;